Terminal Aerodrome Forecast
Issued by NWS Cleveland, OH

Home | Current Version | Previous Version | Text Only | Print | Product List | Glossary Off
Versions: 1 2 3 4 5 6 7 8 9 10 11 12 13 14 15 16

000
FTUS41 KCLE 150540
TAFCAK
TAF
KCAK 150540Z 1506/1606 19010KT P6SM SCT100 WS020/22040KT
     FM151000 21012G20KT P6SM SCT030 BKN150
     FM151600 22020G30KT P6SM BKN025
     FM151800 22025G35KT 6SM -SHRA OVC020
     FM152000 28020G32KT P6SM OVC020
     FM160200 30014KT P6SM BKN025=

USA.gov is the U.S. government's official web portal to all federal, state and local government web resources and services.